Terminal Aerodrome Forecast
Issued by NWS Shreveport, LA

Home | Current Version | Previous Version | Text Only | Print | Product List | Glossary On
Versions: 1 2 3 4 5 6 7 8 9 10 11 12
000
FTUS44 KSHV 031134
TAFGGG
TAF
KGGG 031134Z 0312/0412 VRB04KT P6SM BKN250
     FM031800 14006KT P6SM FEW060 BKN250
     FM040100 12004KT P6SM SCT250=

USA.gov is the U.S. government's official web portal to all federal, state and local government web resources and services.